»·PEaware :: QXE2506 KSEA-KGEG

QXE2506 :: KSEA-KGEG

FLIGHT INFORMATION

Flight Status: Arrived
Operator:
Horizon Air
More flights by this operator :: More flights under this callsign
Pilot: Charles D. (23067)
Aircraft: EMBRAER EMB-170/175
(E170)
More flights by this aircraft type
Origin: KSEA Seattle-Tacoma Intl
United States
Destination: KGEG Spokane Intl
United States
More flights between these airports :: More routes between these airports
Route: +SEA7 ZADON ZELAK ZIRAN ZOOMR ZOOMR1
File this flight plan on PilotEdge
Remarks: RMK / SIMBRIEF
Altitude:
(Current/Filed)
23,000ft
Speed:
(Current/Filed)
400kts
Departed: 24-Jun-19 02:14 PM
Arrived: 24-Jun-19 02:52 PM
Distance/Time
Traveled:
193nm/0:38
Distance/Time
To Go:
Arrived

Flight Plot

Page will automatically refresh every two minutes.

Flight plan parsing failed; only flown route is shown


Map Options




Map Legend


Flown Route
Filed Route
Departure Airport
Arrival Airport
Navaid (VOR, NDB)
Fix

Horizontal Profiles

Position Reports

Time Latitude Longitude Heading Altitude Ground
Speed
24-Jun-19 13:45 47.446469 -122.304549 129 441ft 0kts
24-Jun-19 13:46 47.446469 -122.304549 129 441ft 0kts
24-Jun-19 13:47 47.446469 -122.304549 129 441ft 0kts
24-Jun-19 13:48 47.446469 -122.304549 129 441ft 0kts
24-Jun-19 13:49 47.446469 -122.304549 129 441ft 0kts
24-Jun-19 13:50 47.446469 -122.304549 129 441ft 0kts
24-Jun-19 13:51 47.446469 -122.304549 129 441ft 0kts
24-Jun-19 13:52 47.446469 -122.304549 129 441ft 0kts
24-Jun-19 13:53 47.446469 -122.304549 129 441ft 0kts
24-Jun-19 13:54 47.446469 -122.304549 129 441ft 0kts
24-Jun-19 13:55 47.446469 -122.304549 129 441ft 0kts
24-Jun-19 13:56 47.446469 -122.304549 129 441ft 0kts
24-Jun-19 13:57 47.446469 -122.304549 129 441ft 0kts
24-Jun-19 13:58 47.446469 -122.304549 129 441ft 0kts
24-Jun-19 13:59 47.446469 -122.304549 129 441ft 0kts
24-Jun-19 14:00 47.446469 -122.304549 129 441ft 0kts
24-Jun-19 14:01 47.446469 -122.304549 129 441ft 0kts
24-Jun-19 14:02 47.446469 -122.304549 129 441ft 0kts
24-Jun-19 14:03 47.446469 -122.304549 129 441ft 0kts
24-Jun-19 14:04 47.446469 -122.304549 129 441ft 0kts
24-Jun-19 14:05 47.446463 -122.304540 138 441ft 0kts
24-Jun-19 14:06 47.446320 -122.304834 246 441ft 0kts
24-Jun-19 14:07 47.446286 -122.304949 246 441ft 0kts
24-Jun-19 14:08 47.449426 -122.306251 358 441ft 13kts
24-Jun-19 14:09 47.453917 -122.306187 359 441ft 14kts
24-Jun-19 14:10 47.458056 -122.306175 0 441ft 21kts
24-Jun-19 14:11 47.463550 -122.306294 322 441ft 1kts
24-Jun-19 14:12 47.463726 -122.307186 251 441ft 17kts
24-Jun-19 14:13 47.415465 -122.307225 182 2513ft 269kts
24-Jun-19 14:14 47.339443 -122.308329 181 5614ft 266kts
24-Jun-19 14:16 47.267905 -122.285900 123 8978ft 286kts
24-Jun-19 14:17 47.301033 -122.183657 42 12531ft 360kts
24-Jun-19 14:18 47.370581 -122.069314 47 14976ft 384kts
24-Jun-19 14:19 47.443325 -121.944246 45 20385ft 428kts
24-Jun-19 14:20 47.523667 -121.805487 45 23094ft 454kts
24-Jun-19 14:21 47.561002 -121.631130 90 23104ft 464kts
24-Jun-19 14:22 47.558277 -121.438944 90 23104ft 464kts
24-Jun-19 14:23 47.555332 -121.247315 91 23016ft 466kts
24-Jun-19 14:24 47.552080 -121.055626 91 22981ft 465kts
24-Jun-19 14:25 47.548486 -120.864536 92 22981ft 464kts
24-Jun-19 14:26 47.544590 -120.673511 92 22979ft 464kts
24-Jun-19 14:27 47.540393 -120.483002 92 22968ft 464kts
24-Jun-19 14:28 47.533187 -120.291347 94 22962ft 464kts
24-Jun-19 14:29 47.525388 -120.098409 94 22963ft 464kts
24-Jun-19 14:30 47.517163 -119.904407 94 22965ft 463kts
24-Jun-19 14:31 47.508948 -119.711706 94 21718ft 453kts
24-Jun-19 14:32 47.500640 -119.521192 93 20461ft 442kts
24-Jun-19 14:33 47.492365 -119.335077 94 19206ft 431kts
24-Jun-19 14:34 47.484365 -119.156326 94 17945ft 421kts
24-Jun-19 14:35 47.476530 -118.982788 94 16697ft 410kts
24-Jun-19 14:35 47.470707 -118.842162 93 15662ft 400kts
24-Jun-19 14:37 47.451180 -118.657072 94 14207ft 389kts
24-Jun-19 14:38 47.440409 -118.499679 96 13038ft 378kts
24-Jun-19 14:38 47.430391 -118.371049 96 13014ft 379kts
24-Jun-19 14:39 47.443882 -118.221316 73 13018ft 379kts
24-Jun-19 14:41 47.460127 -118.041654 84 13018ft 379kts
24-Jun-19 14:41 47.468573 -117.912312 84 13018ft 379kts
24-Jun-19 14:42 47.478756 -117.757508 84 13018ft 379kts
24-Jun-19 14:44 47.510914 -117.594903 46 11067ft 312kts
24-Jun-19 14:44 47.555581 -117.529029 38 9212ft 233kts
24-Jun-19 14:45 47.602082 -117.467993 39 7541ft 211kts
24-Jun-19 14:46 47.640610 -117.415765 45 5863ft 171kts
24-Jun-19 14:47 47.674769 -117.404783 269 4121ft 126kts
24-Jun-19 14:48 47.667562 -117.452716 252 3636ft 120kts
24-Jun-19 14:49 47.648313 -117.492693 221 2928ft 115kts
24-Jun-19 14:50 47.627511 -117.523719 227 2392ft 77kts
24-Jun-19 14:51 47.620021 -117.537292 256 2392ft 18kts
24-Jun-19 14:52 47.620934 -117.537761 45 2392ft 21kts
24-Jun-19 14:53 47.623132 -117.540373 355 2392ft 6kts
24-Jun-19 14:54 47.623364 -117.540373 0 2392ft 0kts
24-Jun-19 14:55 47.623364 -117.540373 0 2392ft 0kts
24-Jun-19 14:56 47.623364 -117.540373 0 2392ft 0kts
24-Jun-19 14:57 47.623364 -117.540373 0 2392ft 0kts
24-Jun-19 14:58 47.623364 -117.540373 0 2392ft 0kts
24-Jun-19 14:59 47.623364 -117.540373 0 2392ft 0kts
24-Jun-19 15:00 47.623364 -117.540373 0 2392ft 0kts
24-Jun-19 15:01 47.623364 -117.540373 0 2392ft 0kts
24-Jun-19 15:02 47.623364 -117.540373 0 2392ft 0kts
24-Jun-19 15:03 47.623364 -117.540373 0 2392ft 0kts
24-Jun-19 15:04 47.623364 -117.540373 0 2392ft 0kts
24-Jun-19 15:05 47.623364 -117.540373 0 2392ft 0kts

Navigation Log

Ident Type
Flight plan parsing failed, navigation log unavailable